Time;durP1;ratioP1;P1;durP2;ratioP2;P2;SDS_P1;SDS_P2;PMS_P1;PMS_P2;Temp;Humidity;BMP_temperature;BMP_pressure;BME280_temperature;BME280_humidity;BME280_pressure;Samples;Min_cycle;Max_cycle;Signal;HPM_P1;HPM_P2
2023/01/08 00:02:06;;;;;;;147.52;97.80;;;11.80;99.90;;;;;;5051086;28;20063;-69
2023/01/08 00:05:11;;;;;;;155.15;96.75;;;;;;;;;;5051279;28;20068;-69
2023/01/08 00:08:16;;;;;;;145.63;95.25;;;;;;;;;;5050775;28;20404;-68
2023/01/08 00:11:20;;;;;;;142.68;93.07;;;;;;;;;;5050964;28;20519;-69
2023/01/08 00:14:24;;;;;;;140.93;93.13;;;;;;;;;;5050821;28;20052;-69
2023/01/08 00:17:29;;;;;;;142.77;88.10;;;;;;;;;;5050784;28;20040;-69
2023/01/08 00:20:33;;;;;;;129.13;83.45;;;11.40;99.90;;;;;;5051050;28;20051;-69
2023/01/08 00:23:37;;;;;;;126.97;81.63;;;11.40;99.90;;;;;;5051155;28;20052;-69
2023/01/08 00:26:41;;;;;;;128.95;83.60;;;11.60;99.90;;;;;;5050892;28;20052;-69
2023/01/08 00:29:45;;;;;;;127.63;86.10;;;11.50;99.90;;;;;;5050945;28;20060;-69
2023/01/08 00:32:52;;;;;;;126.72;82.65;;;;;;;;;;5050914;28;20056;-69
2023/01/08 00:35:56;;;;;;;133.02;86.43;;;;;;;;;;5050707;28;20056;-69
2023/01/08 00:39:00;;;;;;;132.50;90.28;;;;;;;;;;5049828;28;20492;-69
2023/01/08 00:42:05;;;;;;;146.52;90.60;;;;;;;;;;5050653;28;20051;-69
2023/01/08 00:45:09;;;;;;;139.30;89.00;;;11.60;99.90;;;;;;5050394;28;20575;-68
2023/01/08 00:48:14;;;;;;;143.95;90.80;;;;;;;;;;5050698;28;20511;-69
2023/01/08 00:51:21;;;;;;;137.80;89.10;;;;;;;;;;5050450;28;20368;-69
2023/01/08 00:54:25;;;;;;;141.63;92.53;;;;;;;;;;5049412;28;20056;-68
2023/01/08 00:57:34;;;;;;;139.82;92.50;;;11.60;99.90;;;;;;5049559;28;20044;-69
2023/01/08 01:00:38;;;;;;;139.32;90.60;;;;;;;;;;5049934;28;20060;-69
2023/01/08 01:03:43;;;;;;;138.45;92.10;;;;;;;;;;5049166;28;20048;-70
2023/01/08 01:06:48;;;;;;;143.75;92.65;;;;;;;;;;5049788;28;20047;-69
2023/01/08 01:09:51;;;;;;;145.43;94.90;;;12.70;99.90;;;;;;5050206;28;20627;-69
2023/01/08 01:12:56;;;;;;;139.23;92.43;;;;;;;;;;5050172;28;20040;-69
2023/01/08 01:16:01;;;;;;;148.98;97.88;;;11.90;99.90;;;;;;5050123;28;20040;-70
2023/01/08 01:19:07;;;;;;;149.90;98.80;;;;;;;;;;5037847;28;20044;-69
2023/01/08 01:22:11;;;;;;;140.25;94.13;;;;;;;;;;5050240;28;20103;-70
2023/01/08 01:25:15;;;;;;;150.75;97.10;;;10.60;99.90;;;;;;5050430;28;20056;-69
2023/01/08 01:28:19;;;;;;;146.73;98.03;;;;;;;;;;5051955;28;20052;-70
2023/01/08 01:31:26;;;;;;;140.68;92.75;;;11.80;99.90;;;;;;5053951;28;20511;-69
2023/01/08 01:34:31;;;;;;;134.90;92.55;;;;;;;;;;5053895;28;20448;-68
2023/01/08 01:37:35;;;;;;;138.00;92.35;;;;;;;;;;5053715;28;20398;-69
2023/01/08 01:40:43;;;;;;;145.60;96.22;;;14.10;99.90;;;;;;5052962;28;20205;-70
2023/01/08 01:43:47;;;;;;;143.63;97.03;;;;;;;;;;5053868;28;20060;-70
2023/01/08 01:46:51;;;;;;;146.48;97.72;;;;;;;;;;5053429;28;20412;-70
2023/01/08 01:50:10;;;;;;;147.40;101.88;;;11.70;99.90;;;;;;5053504;28;20040;-69
2023/01/08 01:53:28;;;;;;;157.98;104.22;;;15.30;99.90;;;;;;5053435;28;20063;-69
2023/01/08 01:56:33;;;;;;;151.30;104.18;;;11.60;99.90;;;;;;5053263;28;20503;-69
2023/01/08 01:59:38;;;;;;;161.35;105.65;;;;;;;;;;5053092;28;20104;-70
2023/01/08 02:02:42;;;;;;;152.60;105.28;;;;;;;;;;5052425;28;20044;-69
2023/01/08 02:06:11;;;;;;;157.43;105.70;;;11.70;99.90;;;;;;5053109;28;20404;-69
2023/01/08 02:10:00;;;;;;;157.82;106.95;;;11.60;99.90;;;;;;5052901;28;20052;-69
2023/01/08 02:13:13;;;;;;;158.52;104.95;;;11.20;99.90;;;;;;5052015;28;20048;-69
2023/01/08 02:16:28;;;;;;;151.23;103.20;;;11.70;99.90;;;;;;5052776;28;20064;-70
2023/01/08 02:19:56;;;;;;;142.32;95.88;;;11.60;99.90;;;;;;5052705;28;20039;-69
2023/01/08 02:23:24;;;;;;;134.90;93.90;;;12.10;99.90;;;;;;5052687;28;20043;-69
2023/01/08 02:26:33;;;;;;;122.63;87.07;;;11.80;99.90;;;;;;5052602;28;20060;-69
2023/01/08 02:29:39;;;;;;;130.15;85.15;;;11.90;99.90;;;;;;5052716;28;20060;-69
2023/01/08 02:32:43;;;;;;;128.45;87.55;;;;;;;;;;5052634;28;20396;-69
2023/01/08 02:36:15;;;;;;;119.20;80.13;;;12.00;99.90;;;;;;5052250;28;20044;-69
2023/01/08 02:39:43;;;;;;;126.32;88.30;;;13.60;99.90;;;;;;5050962;28;20032;-68
2023/01/08 02:42:58;;;;;;;136.48;90.13;;;11.90;99.90;;;;;;5052247;28;20044;-69
2023/01/08 02:46:03;;;;;;;129.85;88.38;;;11.30;99.90;;;;;;5052376;28;20071;-69
2023/01/08 02:49:11;;;;;;;131.07;89.65;;;12.00;99.90;;;;;;5052242;28;20052;-68
2023/01/08 02:52:17;;;;;;;131.68;89.32;;;11.90;99.90;;;;;;5051058;28;20045;-68
2023/01/08 02:55:22;;;;;;;129.07;89.20;;;;;;;;;;5051136;28;20044;-69
2023/01/08 02:58:28;;;;;;;131.45;89.07;;;11.80;99.90;;;;;;5051851;28;20451;-69
2023/01/08 03:01:33;;;;;;;124.72;87.13;;;13.60;99.90;;;;;;5051915;28;20032;-68
2023/01/08 03:04:53;;;;;;;130.93;89.72;;;11.90;99.90;;;;;;5051982;28;20048;-69
2023/01/08 03:07:57;;;;;;;120.45;88.10;;;;;;;;;;5051577;28;20072;-68
2023/01/08 03:11:08;;;;;;;127.13;88.07;;;11.90;99.90;;;;;;5051858;28;20056;-68
2023/01/08 03:14:36;;;;;;;128.55;89.20;;;12.40;99.90;;;;;;5052209;28;20147;-69
2023/01/08 03:17:47;;;;;;;124.22;87.65;;;11.90;99.90;;;;;;5051706;28;20040;-70
2023/01/08 03:20:51;;;;;;;124.00;85.95;;;12.00;99.90;;;;;;5051790;28;20040;-69
2023/01/08 03:23:56;;;;;;;126.93;85.15;;;11.90;99.90;;;;;;5051567;28;20511;-68
2023/01/08 03:27:04;;;;;;;124.35;83.97;;;11.90;99.90;;;;;;5051625;28;20056;-69
2023/01/08 03:30:10;;;;;;;121.60;83.43;;;9.90;99.90;;;;;;5051202;28;20056;-69
2023/01/08 03:33:16;;;;;;;124.40;86.88;;;14.00;99.90;;;;;;5051563;28;20044;-69
2023/01/08 03:36:26;;;;;;;120.82;84.95;;;12.80;99.90;;;;;;5051469;28;20036;-69
2023/01/08 03:39:40;;;;;;;128.35;87.35;;;12.30;99.90;;;;;;5051764;28;20048;-69
2023/01/08 03:42:45;;;;;;;124.10;86.03;;;;;;;;;;5051259;28;20424;-69
2023/01/08 03:45:51;;;;;;;120.25;84.00;;;;;;;;;;5051420;28;20048;-70
2023/01/08 03:48:55;;;;;;;121.38;84.97;;;;;;;;;;5051699;28;20047;-70
2023/01/08 03:52:00;;;;;;;124.43;85.95;;;;;;;;;;5051089;28;20048;-70
2023/01/08 03:55:04;;;;;;;121.90;86.82;;;;;;;;;;5051509;28;20213;-69
2023/01/08 03:58:08;;;;;;;118.95;85.95;;;;;;;;;;5051230;28;20036;-69
2023/01/08 04:01:13;;;;;;;123.15;85.45;;;;;;;;;;5051106;28;20032;-70
2023/01/08 04:04:17;;;;;;;125.40;86.15;;;;;;;;;;5051563;28;20595;-70
2023/01/08 04:07:22;;;;;;;122.97;85.18;;;;;;;;;;5050901;28;20059;-70
2023/01/08 04:10:26;;;;;;;121.50;85.85;;;;;;;;;;5050723;28;20072;-70
2023/01/08 04:13:30;;;;;;;121.35;86.47;;;;;;;;;;5051063;28;20035;-69
2023/01/08 04:16:35;;;;;;;121.82;87.50;;;;;;;;;;5050692;28;20043;-70
2023/01/08 04:19:42;;;;;;;117.88;83.88;;;14.50;99.90;;;;;;5050666;28;20036;-69
2023/01/08 04:22:46;;;;;;;119.32;82.25;;;;;;;;;;5050990;28;20047;-70
2023/01/08 04:25:50;;;;;;;106.05;77.15;;;;;;;;;;5050617;28;20040;-69
2023/01/08 04:28:54;;;;;;;111.15;77.30;;;;;;;;;;5050420;28;20063;-70
2023/01/08 04:31:59;;;;;;;118.05;79.53;;;12.00;99.90;;;;;;5050796;28;20138;-69
2023/01/08 04:35:03;;;;;;;120.57;82.15;;;;;;;;;;5050470;28;20055;-70
2023/01/08 04:38:08;;;;;;;115.65;78.95;;;;;;;;;;5051069;28;20405;-70
2023/01/08 04:41:12;;;;;;;125.88;79.10;;;;;;;;;;5050449;28;20452;-69
2023/01/08 04:44:17;;;;;;;112.47;72.72;;;;;;;;;;5050336;28;20397;-70
2023/01/08 04:47:20;;;;;;;103.15;70.13;;;12.00;99.90;;;;;;5050509;28;20052;-70
2023/01/08 04:50:25;;;;;;;97.07;67.95;;;11.80;99.90;;;;;;5050642;28;20068;-68
2023/01/08 04:53:35;;;;;;;114.07;74.78;;;11.90;99.90;;;;;;5050312;28;20048;-68
2023/01/08 04:56:39;;;;;;;108.93;73.93;;;;;;;;;;5050430;28;20390;-69
2023/01/08 04:59:43;;;;;;;103.70;71.30;;;;;;;;;;5050468;28;20048;-68
2023/01/08 05:02:48;;;;;;;100.90;69.88;;;;;;;;;;5051504;28;20052;-68
2023/01/08 05:05:52;;;;;;;96.35;67.07;;;;;;;;;;5054355;28;20044;-68
2023/01/08 05:08:57;;;;;;;98.63;66.82;;;;;;;;;;5053824;28;20080;-68
2023/01/08 05:12:01;;;;;;;91.05;61.95;;;;;;;;;;5054013;28;20395;-68
2023/01/08 05:15:05;;;;;;;84.90;58.67;;;;;;;;;;5054001;28;20389;-69
2023/01/08 05:18:10;;;;;;;85.07;58.60;;;14.30;99.90;;;;;;5053959;28;20504;-69
2023/01/08 05:21:15;;;;;;;84.93;57.78;;;12.70;99.90;;;;;;5053929;28;20048;-69
2023/01/08 05:24:19;;;;;;;88.45;57.70;;;;;;;;;;5053671;28;20048;-69
2023/01/08 05:27:24;;;;;;;86.80;59.58;;;;;;;;;;5053624;28;20056;-70
2023/01/08 05:30:28;;;;;;;92.63;60.53;;;;;;;;;;5053843;28;20048;-69
2023/01/08 05:33:33;;;;;;;85.88;59.35;;;;;;;;;;5053890;28;20055;-69
2023/01/08 05:36:37;;;;;;;94.75;60.78;;;;;;;;;;5053482;28;20048;-69
2023/01/08 05:39:41;;;;;;;91.82;61.72;;;;;;;;;;5053601;28;20044;-69
2023/01/08 05:42:48;;;;;;;91.68;60.95;;;;;;;;;;5053660;28;20116;-69
2023/01/08 05:45:52;;;;;;;92.43;61.53;;;;;;;;;;5053600;28;20048;-69
2023/01/08 05:48:57;;;;;;;97.05;65.45;;;;;;;;;;5053530;28;20060;-69
2023/01/08 05:52:02;;;;;;;95.30;64.25;;;;;;;;;;5052250;28;20036;-69
2023/01/08 05:55:06;;;;;;;93.07;62.28;;;;;;;;;;5053483;28;20088;-69
2023/01/08 05:58:10;;;;;;;88.47;59.08;;;;;;;;;;5053045;28;20040;-69
2023/01/08 06:01:15;;;;;;;88.43;60.03;;;11.80;99.90;;;;;;5053011;28;20064;-68
2023/01/08 06:04:19;;;;;;;86.25;57.72;;;;;;;;;;5052798;28;20036;-68
2023/01/08 06:07:24;;;;;;;83.57;57.85;;;;;;;;;;5052940;28;20048;-69
2023/01/08 06:10:28;;;;;;;86.22;55.15;;;;;;;;;;5053120;28;20556;-70
2023/01/08 06:13:33;;;;;;;81.72;54.58;;;11.30;99.90;;;;;;5052739;28;20032;-69
2023/01/08 06:16:38;;;;;;;74.57;52.05;;;;;;;;;;5052966;28;20507;-70
2023/01/08 06:19:42;;;;;;;78.90;52.67;;;11.50;99.90;;;;;;5052733;28;20036;-69
2023/01/08 06:22:46;;;;;;;76.38;50.38;;;;;;;;;;5051848;28;20044;-69
2023/01/08 06:25:53;;;;;;;73.03;50.80;;;13.50;99.90;;;;;;5052839;28;20624;-69
2023/01/08 06:28:58;;;;;;;70.35;50.10;;;;;;;;;;5052549;28;20543;-69
2023/01/08 06:32:03;;;;;;;71.28;49.40;;;;;;;;;;5052484;28;20063;-69
2023/01/08 06:35:07;;;;;;;70.57;49.22;;;;;;;;;;5052525;28;20044;-70
2023/01/08 06:38:11;;;;;;;68.93;45.55;;;;;;;;;;5052551;28;20507;-68
2023/01/08 06:41:17;;;;;;;65.10;45.13;;;;;;;;;;5052503;28;20044;-68
2023/01/08 06:44:21;;;;;;;69.10;44.15;;;;;;;;;;5052468;28;20499;-69
2023/01/08 06:47:26;;;;;;;67.40;45.55;;;;;;;;;;5052270;28;20539;-70
2023/01/08 06:50:30;;;;;;;68.88;44.42;;;12.10;99.90;;;;;;5051368;28;20060;-68
2023/01/08 06:53:34;;;;;;;67.43;44.85;;;;;;;;;;5052208;28;20056;-68
2023/01/08 06:56:39;;;;;;;66.88;45.75;;;;;;;;;;5051822;28;20040;-69
2023/01/08 06:59:43;;;;;;;66.45;45.22;;;;;;;;;;5052515;28;20048;-69
2023/01/08 07:02:47;;;;;;;72.13;48.03;;;;;;;;;;5052108;28;20044;-69
2023/01/08 07:05:52;;;;;;;71.93;48.13;;;;;;;;;;5052091;28;20060;-69
2023/01/08 07:08:56;;;;;;;65.75;46.28;;;;;;;;;;5051950;28;20064;-68
2023/01/08 07:12:00;;;;;;;68.78;48.78;;;10.70;99.90;;;;;;5052082;28;20040;-69
2023/01/08 07:15:05;;;;;;;68.78;48.47;;;;;;;;;;5051868;28;20048;-69
2023/01/08 07:18:10;;;;;;;75.25;50.20;;;11.30;99.90;;;;;;5051769;28;20506;-69
2023/01/08 07:21:15;;;;;;;80.03;50.80;;;12.20;99.90;;;;;;5052145;28;20048;-70
2023/01/08 07:24:19;;;;;;;72.28;49.30;;;;;;;;;;5051577;28;20044;-68
2023/01/08 07:27:24;;;;;;;72.10;50.97;;;;;;;;;;5051131;28;20044;-69
2023/01/08 07:30:28;;;;;;;79.45;52.05;;;;;;;;;;5051526;28;20060;-68
2023/01/08 07:33:33;;;;;;;71.13;50.03;;;12.70;99.90;;;;;;5051355;28;20043;-69
2023/01/08 07:36:37;;;;;;;75.50;50.65;;;;;;;;;;5051785;28;20048;-70
2023/01/08 07:39:42;;;;;;;80.93;52.35;;;;;;;;;;5051948;28;20040;-70
2023/01/08 07:42:46;;;;;;;82.82;54.00;;;;;;;;;;5051951;28;20048;-69
2023/01/08 07:45:50;;;;;;;72.15;51.10;;;12.30;99.90;;;;;;5052150;28;20044;-69
2023/01/08 07:48:56;;;;;;;83.47;53.95;;;12.20;99.90;;;;;;5050330;28;20064;-69
2023/01/08 07:52:00;;;;;;;81.82;53.67;;;;;;;;;;5051264;28;20040;-69
2023/01/08 07:55:04;;;;;;;80.55;54.90;;;;;;;;;;5051440;28;20439;-69
2023/01/08 07:58:10;;;;;;;79.88;54.03;;;12.10;99.90;;;;;;5050346;28;20040;-69
2023/01/08 08:01:15;;;;;;;75.45;53.28;;;14.20;99.90;;;;;;5050882;28;20048;-69
2023/01/08 08:04:18;;;;;;;75.03;53.15;;;12.10;99.90;;;;;;5051512;28;20503;-70
2023/01/08 08:07:23;;;;;;;81.40;53.85;;;;;;;;;;5050816;28;20072;-69
2023/01/08 08:10:27;;;;;;;76.95;54.92;;;;;;;;;;5050824;28;20040;-69
2023/01/08 08:13:32;;;;;;;78.78;54.90;;;12.30;99.90;;;;;;5051530;28;20051;-69
2023/01/08 08:16:36;;;;;;;81.22;56.53;;;;;;;;;;5051327;28;20052;-69
2023/01/08 08:19:42;;;;;;;88.80;57.03;;;;;;;;;;5050082;28;20046;-69
2023/01/08 08:22:50;;;;;;;87.05;56.42;;;;;;;;;;5051239;28;20051;-71
2023/01/08 08:25:54;;;;;;;90.07;57.72;;;;;;;;;;5052258;28;20048;-71
2023/01/08 08:28:59;;;;;;;86.90;59.97;;;;;;;;;;5050711;28;20416;-72
2023/01/08 08:32:03;;;;;;;89.35;60.85;;;;;;;;;;5051728;28;20041;-71
2023/01/08 08:35:07;;;;;;;93.10;63.65;;;12.40;99.90;;;;;;5051415;28;20043;-71
2023/01/08 08:38:11;;;;;;;87.63;60.42;;;12.60;99.90;;;;;;5053076;28;20067;-72
2023/01/08 08:41:16;;;;;;;86.97;60.25;;;12.50;99.90;;;;;;5054792;28;20136;-71
2023/01/08 08:44:20;;;;;;;82.97;58.90;;;;;;;;;;5055639;28;20036;-72
2023/01/08 08:47:24;;;;;;;88.20;60.22;;;12.50;99.90;;;;;;5054421;28;20056;-72
2023/01/08 08:50:29;;;;;;;77.95;58.90;;;12.60;99.90;;;;;;5056557;28;20079;-71
2023/01/08 08:53:34;;;;;;;85.88;58.50;;;;;;;;;;5042710;28;20551;-72
2023/01/08 08:56:39;;;;;;;89.68;60.58;;;;;;;;;;5055464;28;20052;-71
2023/01/08 08:59:43;;;;;;;86.80;59.97;;;;;;;;;;5055646;28;20043;-72
2023/01/08 09:02:52;;;;;;;93.65;63.38;;;13.30;99.90;;;;;;5054811;28;20508;-72
2023/01/08 09:05:56;;;;;;;87.65;61.03;;;11.30;99.90;;;;;;5054582;28;20491;-71
2023/01/08 09:09:00;;;;;;;95.63;68.00;;;;;;;;;;5054227;28;20056;-72
2023/01/08 09:12:06;;;;;;;93.75;64.50;;;12.50;99.90;;;;;;5054452;28;20502;-72
2023/01/08 09:15:10;;;;;;;90.70;63.83;;;12.00;99.90;;;;;;5054878;28;20044;-72
2023/01/08 09:18:14;;;;;;;92.82;62.75;;;11.10;99.90;;;;;;5054790;28;20049;-72
2023/01/08 09:21:19;;;;;;;95.70;64.75;;;;;;;;;;5054915;28;20060;-72
2023/01/08 09:24:23;;;;;;;89.38;60.30;;;12.80;99.90;;;;;;5054723;28;20044;-73
2023/01/08 09:27:27;;;;;;;83.95;58.15;;;12.80;99.90;;;;;;5054201;28;20392;-72
2023/01/08 09:30:32;;;;;;;88.07;59.22;;;12.80;99.90;;;;;;5054529;28;20048;-71
2023/01/08 09:33:36;;;;;;;88.72;58.72;;;12.80;99.90;;;;;;5054878;28;20507;-73
2023/01/08 09:36:40;;;;;;;82.40;56.22;;;13.00;99.90;;;;;;5054414;28;20068;-72
2023/01/08 09:39:44;;;;;;;88.22;60.17;;;13.10;99.90;;;;;;5054272;28;20048;-73
2023/01/08 09:42:54;;;;;;;80.47;57.95;;;13.10;99.90;;;;;;5054041;28;20048;-72
2023/01/08 09:46:01;;;;;;;79.57;57.00;;;13.10;99.90;;;;;;5054482;28;20396;-72
2023/01/08 09:49:23;;;;;;;80.43;55.95;;;13.30;99.90;;;;;;5052714;28;20507;-74
2023/01/08 09:52:30;;;;;;;85.40;60.70;;;13.30;99.90;;;;;;5053718;28;20052;-73
2023/01/08 09:55:34;;;;;;;91.20;62.92;;;13.40;99.90;;;;;;5053439;28;20075;-72
2023/01/08 09:58:45;;;;;;;96.28;65.35;;;13.40;99.90;;;;;;5054354;28;20040;-73
2023/01/08 10:01:51;;;;;;;86.20;58.88;;;13.30;99.90;;;;;;5053783;28;20341;-73
2023/01/08 10:04:59;;;;;;;83.82;59.08;;;13.30;99.90;;;;;;5053847;28;20047;-70
2023/01/08 10:08:03;;;;;;;83.50;59.05;;;13.40;99.90;;;;;;5053823;28;20060;-73
2023/01/08 10:11:09;;;;;;;80.18;56.75;;;13.40;99.90;;;;;;5054083;28;20044;-72
2023/01/08 10:14:26;;;;;;;83.15;57.50;;;13.40;99.90;;;;;;5055003;28;20047;-71
2023/01/08 10:17:42;;;;;;;72.45;51.30;;;13.50;99.90;;;;;;5054915;28;20507;-72
2023/01/08 10:20:47;;;;;;;75.20;51.03;;;13.70;99.90;;;;;;5055770;28;20048;-72
2023/01/08 10:23:52;;;;;;;65.28;49.50;;;13.70;99.90;;;;;;5053394;28;20603;-72
2023/01/08 10:27:06;;;;;;;68.57;51.50;;;13.70;99.90;;;;;;5063596;28;20043;-72
2023/01/08 10:30:15;;;;;;;72.05;52.38;;;13.80;99.90;;;;;;5052822;28;20060;-73
2023/01/08 10:33:25;;;;;;;67.25;46.28;;;13.90;99.90;;;;;;5053925;28;20044;-72
2023/01/08 10:36:37;;;;;;;61.03;41.92;;;14.10;99.90;;;;;;5053346;28;20048;-73
2023/01/08 10:39:46;;;;;;;50.63;34.50;;;14.20;99.90;;;;;;5053603;28;20064;-73
2023/01/08 10:42:52;;;;;;;43.65;31.48;;;14.30;99.90;;;;;;5053170;28;20040;-72
2023/01/08 10:46:06;;;;;;;34.10;23.35;;;14.50;99.90;;;;;;5053189;28;20504;-72
2023/01/08 10:49:19;;;;;;;31.27;20.17;;;14.00;99.90;;;;;;5053005;28;20048;-71
2023/01/08 10:52:35;;;;;;;32.85;19.02;;;14.80;99.90;;;;;;5052627;28;20043;-71
2023/01/08 10:55:39;;;;;;;26.92;17.98;;;14.90;99.90;;;;;;5051516;28;20496;-74
2023/01/08 10:58:43;;;;;;;26.77;15.05;;;15.20;99.90;;;;;;5052504;28;20075;-73
2023/01/08 11:01:49;;;;;;;16.60;13.52;;;15.20;99.90;;;;;;5051911;28;20040;-72
2023/01/08 11:04:53;;;;;;;21.33;14.25;;;15.30;99.90;;;;;;5052971;28;20036;-73
2023/01/08 11:08:04;;;;;;;16.95;13.60;;;15.40;99.90;;;;;;5051996;28;20056;-73
2023/01/08 11:11:09;;;;;;;22.23;13.57;;;15.40;99.90;;;;;;5052409;28;20048;-73
2023/01/08 11:14:26;;;;;;;37.15;20.15;;;15.50;99.90;;;;;;5050552;28;20044;-71
2023/01/08 11:17:32;;;;;;;33.58;20.23;;;15.40;99.90;;;;;;5051792;28;20040;-72
2023/01/08 11:20:38;;;;;;;39.55;20.92;;;15.30;99.90;;;;;;5050900;28;20044;-71
2023/01/08 11:23:42;;;;;;;24.63;16.15;;;15.30;99.90;;;;;;5051594;28;20040;-72
2023/01/08 11:26:56;;;;;;;21.67;13.75;;;15.20;99.90;;;;;;5062816;28;20396;-73
2023/01/08 11:30:11;;;;;;;18.58;12.63;;;15.20;99.90;;;;;;5051395;28;20051;-73
2023/01/08 11:33:21;;;;;;;16.52;11.55;;;15.20;99.90;;;;;;5050992;28;20040;-73
2023/01/08 11:36:35;;;;;;;15.90;11.75;;;15.20;99.90;;;;;;5050491;28;20040;-72
2023/01/08 11:39:39;;;;;;;14.52;10.90;;;15.20;99.90;;;;;;5051979;28;20063;-73
2023/01/08 11:43:16;;;;;;;16.20;11.50;;;15.20;99.90;;;;;;5051968;28;20088;-72
2023/01/08 11:46:29;;;;;;;21.40;13.95;;;15.10;99.90;;;;;;5051124;28;20052;-73
2023/01/08 11:50:42;;;;;;;16.33;10.35;;;15.20;99.90;;;;;;5051255;28;20071;-73
2023/01/08 11:54:11;;;;;;;19.52;11.95;;;15.20;99.90;;;;;;5029540;28;20228;-72
2023/01/08 11:57:33;;;;;;;17.30;12.68;;;15.20;99.90;;;;;;5032310;28;20404;-73
2023/01/08 12:01:07;;;;;;;14.98;11.18;;;15.30;99.90;;;;;;5051579;28;20048;-72
2023/01/08 12:04:55;;;;;;;20.75;14.73;;;15.30;99.90;;;;;;5051084;28;20044;-72
2023/01/08 12:08:11;;;;;;;20.35;14.00;;;15.40;99.90;;;;;;5039207;28;20052;-73
2023/01/08 12:11:29;;;;;;;22.17;13.77;;;15.40;99.90;;;;;;5050855;28;20392;-73
2023/01/08 12:15:11;;;;;;;20.27;12.32;;;15.40;99.90;;;;;;5051711;28;20055;-72
2023/01/08 12:18:33;;;;;;;17.10;10.40;;;15.50;99.90;;;;;;5052022;28;20048;-72
2023/01/08 12:21:40;;;;;;;14.25;8.68;;;15.50;99.90;;;;;;5051772;28;20274;-72
2023/01/08 12:24:44;;;;;;;10.13;5.75;;;15.50;99.90;;;;;;5050349;28;20408;-71
2023/01/08 12:28:01;;;;;;;11.23;5.60;;;15.50;99.90;;;;;;5050867;28;20048;-72
2023/01/08 12:31:55;;;;;;;7.22;4.60;;;15.60;99.90;;;;;;5051177;28;20048;-72
2023/01/08 12:35:19;;;;;;;10.38;6.32;;;15.70;99.90;;;;;;5043256;28;20396;-72
2023/01/08 12:38:34;;;;;;;5.55;3.63;;;15.80;99.90;;;;;;5050978;28;20487;-73
2023/01/08 12:41:42;;;;;;;8.10;3.97;;;15.80;99.90;;;;;;5051543;28;20048;-71
2023/01/08 12:44:47;;;;;;;6.82;3.40;;;15.90;99.90;;;;;;5051306;28;20036;-72
2023/01/08 12:47:57;;;;;;;9.38;3.97;;;15.90;99.90;;;;;;5050769;28;20143;-73
2023/01/08 12:51:07;;;;;;;8.95;4.22;;;16.00;99.90;;;;;;5050334;28;20063;-73
2023/01/08 12:54:30;;;;;;;5.45;3.00;;;16.10;99.90;;;;;;5051758;28;20040;-74
2023/01/08 12:57:45;;;;;;;5.28;3.45;;;16.10;99.90;;;;;;5051515;28;20518;-71
2023/01/08 13:01:10;;;;;;;9.93;5.55;;;16.10;99.90;;;;;;5050240;28;20048;-72
2023/01/08 13:04:15;;;;;;;7.28;2.90;;;16.00;99.90;;;;;;5050806;28;20048;-72
2023/01/08 13:07:23;;;;;;;9.70;4.15;;;16.00;99.90;;;;;;5050225;28;20052;-72
2023/01/08 13:10:30;;;;;;;9.57;3.80;;;15.90;99.90;;;;;;5050990;28;20052;-73
2023/01/08 13:13:35;;;;;;;10.38;4.30;;;15.90;99.90;;;;;;5049665;28;20064;-72
2023/01/08 13:16:41;;;;;;;7.78;3.80;;;15.80;99.90;;;;;;5050822;28;20044;-73
2023/01/08 13:19:52;;;;;;;6.38;3.13;;;15.80;99.90;;;;;;5051398;28;20056;-72
2023/01/08 13:23:00;;;;;;;11.50;6.35;;;15.70;99.90;;;;;;5050912;28;20040;-73
2023/01/08 13:26:05;;;;;;;11.68;7.07;;;15.80;99.90;;;;;;5055196;28;20043;-72
2023/01/08 13:29:38;;;;;;;8.32;5.18;;;15.80;99.90;;;;;;5053849;28;20059;-72
2023/01/08 13:32:48;;;;;;;6.57;3.47;;;15.70;99.90;;;;;;5055902;28;20463;-73
2023/01/08 13:36:12;;;;;;;5.57;3.30;;;15.70;99.90;;;;;;5054574;28;20060;-72
2023/01/08 13:39:20;;;;;;;9.05;3.30;;;15.70;99.90;;;;;;5053805;28;20044;-72
2023/01/08 13:42:28;;;;;;;5.78;3.33;;;15.70;99.90;;;;;;5053722;28;20061;-72
2023/01/08 13:45:32;;;;;;;13.38;4.72;;;15.70;99.90;;;;;;5053517;28;20108;-71
2023/01/08 13:48:39;;;;;;;5.72;3.30;;;15.70;99.90;;;;;;5053425;28;20043;-73
2023/01/08 13:51:46;;;;;;;5.22;3.33;;;15.70;99.90;;;;;;5053388;28;20495;-72
2023/01/08 13:54:51;;;;;;;7.43;3.72;;;15.60;99.90;;;;;;5053944;28;20044;-71
2023/01/08 13:57:59;;;;;;;6.57;3.33;;;15.60;99.90;;;;;;5053292;28;20372;-72
2023/01/08 14:01:08;;;;;;;7.07;3.60;;;15.60;99.90;;;;;;5053686;28;20044;-71
2023/01/08 14:04:20;;;;;;;6.30;3.58;;;15.60;99.90;;;;;;5053344;28;20043;-73
2023/01/08 14:07:24;;;;;;;;;;;15.60;99.90;;;;;;5053960;28;20123;-73
2023/01/08 14:10:29;;;;;;;7.22;4.40;;;15.60;99.90;;;;;;5054301;28;19916;-72
2023/01/08 14:13:34;;;;;;;8.23;4.65;;;15.60;99.90;;;;;;5054888;28;20040;-72
2023/01/08 14:16:39;;;;;;;10.27;5.57;;;15.50;99.90;;;;;;5054373;28;20048;-73
2023/01/08 14:19:44;;;;;;;8.13;4.50;;;15.60;99.90;;;;;;5054100;28;20044;-72
2023/01/08 14:22:48;;;;;;;5.57;3.45;;;15.50;99.90;;;;;;5053238;28;20073;-73
2023/01/08 14:25:53;;;;;;;5.80;3.55;;;15.50;99.90;;;;;;5054437;28;20384;-72
2023/01/08 14:28:57;;;;;;;8.35;3.92;;;15.50;99.90;;;;;;5052801;28;20207;-72
2023/01/08 14:32:01;;;;;;;7.10;4.68;;;15.50;99.90;;;;;;5053990;28;20040;-72
2023/01/08 14:35:08;;;;;;;6.22;3.47;;;15.50;99.90;;;;;;5052755;28;20059;-72
2023/01/08 14:38:14;;;;;;;6.03;3.25;;;15.50;99.90;;;;;;5053097;28;20044;-72
2023/01/08 14:45:01;;;;;;;5.38;2.60;;;15.50;99.90;;;;;;5053311;28;20052;-71
2023/01/08 14:48:18;;;;;;;5.20;3.10;;;15.40;99.90;;;;;;5052941;28;20123;-73
2023/01/08 14:51:25;;;;;;;8.48;3.78;;;15.40;99.90;;;;;;5053365;28;20040;-73
2023/01/08 14:54:34;;;;;;;10.00;5.20;;;15.40;99.90;;;;;;5053329;28;20044;-73
2023/01/08 14:57:42;;;;;;;11.68;6.18;;;15.40;99.90;;;;;;5053040;28;20044;-72
2023/01/08 15:00:54;;;;;;;8.10;5.30;;;15.40;99.90;;;;;;5052905;28;20040;-72
2023/01/08 15:04:26;;;;;;;10.88;7.13;;;15.40;99.90;;;;;;5053516;28;20396;-73
2023/01/08 15:07:33;;;;;;;10.30;6.80;;;15.40;99.90;;;;;;5052877;28;20048;-72
2023/01/08 15:10:41;;;;;;;10.95;6.45;;;15.40;99.90;;;;;;5050552;28;20052;-72
2023/01/08 15:13:47;;;;;;;12.02;5.30;;;15.40;99.90;;;;;;5050440;28;20036;-72
2023/01/08 15:16:54;;;;;;;9.80;5.00;;;15.40;99.90;;;;;;5051620;28;20051;-72
2023/01/08 15:19:59;;;;;;;12.73;5.32;;;15.40;99.90;;;;;;5051710;28;20147;-71
2023/01/08 15:23:03;;;;;;;8.20;4.82;;;15.30;99.90;;;;;;5052730;28;20047;-73
2023/01/08 15:26:20;;;;;;;7.30;4.95;;;15.30;99.90;;;;;;5052853;28;20044;-72
2023/01/08 15:29:32;;;;;;;5.88;4.10;;;15.30;99.90;;;;;;5052425;28;20515;-71
2023/01/08 15:32:39;;;;;;;8.05;3.78;;;15.30;99.90;;;;;;5053560;28;20032;-71
2023/01/08 15:35:44;;;;;;;10.35;4.68;;;15.20;99.90;;;;;;5051730;28;20052;-72
2023/01/08 15:38:51;;;;;;;9.05;4.38;;;15.20;99.90;;;;;;5052385;28;20055;-73
2023/01/08 15:45:31;;;;;;;9.20;5.05;;;15.10;99.90;;;;;;5051801;28;20055;-72
2023/01/08 15:48:35;;;;;;;8.50;5.13;;;15.10;99.90;;;;;;5051381;28;20144;-72
2023/01/08 15:51:45;;;;;;;10.45;4.57;;;15.00;99.90;;;;;;5051402;28;20047;-73
2023/01/08 15:54:50;;;;;;;6.93;4.45;;;15.00;99.90;;;;;;5051398;28;20432;-73
2023/01/08 15:57:54;;;;;;;10.30;4.97;;;15.00;99.90;;;;;;5051988;28;20527;-73
2023/01/08 16:00:58;;;;;;;10.63;5.40;;;15.00;99.90;;;;;;5051486;28;20507;-72
2023/01/08 16:04:03;;;;;;;8.90;4.13;;;15.00;99.90;;;;;;5051680;28;20056;-71
2023/01/08 16:07:07;;;;;;;9.07;5.40;;;15.00;99.90;;;;;;5051291;28;20500;-72
2023/01/08 16:10:13;;;;;;;7.50;4.30;;;15.00;99.90;;;;;;5050585;28;20067;-71
2023/01/08 16:13:16;;;;;;;12.85;6.45;;;14.90;99.90;;;;;;5050945;28;20044;-69
2023/01/08 16:16:23;;;;;;;10.82;7.47;;;14.90;99.90;;;;;;5050737;28;20052;-69
2023/01/08 16:19:28;;;;;;;11.10;6.85;;;14.90;99.90;;;;;;5048602;28;20400;-69
2023/01/08 16:22:32;;;;;;;12.77;6.18;;;14.90;99.90;;;;;;5051585;28;20389;-68
2023/01/08 16:25:40;;;;;;;14.70;8.65;;;14.90;99.90;;;;;;5050781;28;20068;-69
2023/01/08 16:28:44;;;;;;;14.80;8.05;;;14.90;99.90;;;;;;5050877;28;20408;-69
2023/01/08 16:31:48;;;;;;;11.32;6.00;;;14.90;99.90;;;;;;5050754;28;20051;-69
2023/01/08 16:34:53;;;;;;;13.60;9.02;;;14.80;99.90;;;;;;5050488;28;20052;-69
2023/01/08 16:37:57;;;;;;;24.25;13.98;;;14.80;99.90;;;;;;5050845;28;20040;-69
2023/01/08 16:41:01;;;;;;;20.08;9.73;;;14.80;99.90;;;;;;5050655;28;20056;-69
2023/01/08 16:44:05;;;;;;;10.30;6.88;;;14.80;99.90;;;;;;5050320;28;20503;-68
2023/01/08 16:47:09;;;;;;;12.50;6.60;;;14.80;99.90;;;;;;5050542;28;20048;-69